createdAt,value
2023-05-14T00:00:05.248Z,48.10
2023-05-14T00:01:05.206Z,48.10
2023-05-14T00:02:05.248Z,48.10
2023-05-14T00:03:05.289Z,48.21
2023-05-14T00:04:05.418Z,48.21
2023-05-14T00:05:05.136Z,48.10
2023-05-14T00:06:05.201Z,48.21
2023-05-14T00:07:05.117Z,48.21
2023-05-14T00:08:05.164Z,48.21
2023-05-14T00:09:05.091Z,48.21
2023-05-14T00:10:05.151Z,48.21
2023-05-14T00:11:05.063Z,48.21
2023-05-14T00:12:05.116Z,48.21
2023-05-14T00:13:05.049Z,48.21
2023-05-14T00:14:05.094Z,48.21
2023-05-14T00:15:05.035Z,48.21
2023-05-14T00:16:05.157Z,48.21
2023-05-14T00:17:05.007Z,48.21
2023-05-14T00:18:05.105Z,48.21
2023-05-14T00:19:05.068Z,48.21
2023-05-14T00:20:05.030Z,48.21
2023-05-14T00:21:04.966Z,48.21
2023-05-14T00:22:05.013Z,48.21
2023-05-14T00:23:04.945Z,48.21
2023-05-14T00:24:05.049Z,48.21
2023-05-14T00:25:04.923Z,48.21
2023-05-14T00:26:04.976Z,48.21
2023-05-14T00:27:04.907Z,48.21
2023-05-14T00:28:04.968Z,48.21
2023-05-14T00:29:04.889Z,48.21
2023-05-14T00:30:04.923Z,48.30
2023-05-14T00:31:04.900Z,48.21
2023-05-14T00:32:04.909Z,48.21
2023-05-14T00:33:04.882Z,48.30
2023-05-14T00:34:04.877Z,48.30
2023-05-14T00:35:04.814Z,48.30
2023-05-14T00:36:04.855Z,48.30
2023-05-14T00:37:04.793Z,48.30
2023-05-14T00:38:04.845Z,48.30
2023-05-14T00:39:04.794Z,48.30
2023-05-14T00:40:04.820Z,48.30
2023-05-14T00:41:04.766Z,48.30
2023-05-14T00:42:04.801Z,48.30
2023-05-14T00:43:04.743Z,48.30
2023-05-14T00:44:04.781Z,48.30
2023-05-14T00:45:04.783Z,48.30
2023-05-14T00:46:04.770Z,48.30
2023-05-14T00:47:04.757Z,48.30
2023-05-14T00:48:04.798Z,48.30
2023-05-14T00:49:04.667Z,48.30
2023-05-14T00:50:04.774Z,48.30
2023-05-14T00:51:04.653Z,48.30
2023-05-14T00:52:04.699Z,48.30
2023-05-14T00:53:04.626Z,48.30
2023-05-14T00:54:04.691Z,48.30
2023-05-14T00:55:04.606Z,48.30
2023-05-14T00:56:04.669Z,48.30
2023-05-14T00:57:04.597Z,48.30
2023-05-14T00:58:04.665Z,48.30
2023-05-14T00:59:04.550Z,48.30
2023-05-14T01:00:04.625Z,48.30
2023-05-14T01:01:04.529Z,48.30
2023-05-14T01:02:04.630Z,48.30
2023-05-14T01:03:04.594Z,48.30
2023-05-14T01:04:04.665Z,48.30
2023-05-14T01:05:04.502Z,48.30
2023-05-14T01:06:04.563Z,48.30
2023-05-14T01:07:04.483Z,48.30
2023-05-14T01:08:04.523Z,48.30
2023-05-14T01:09:04.532Z,48.30
2023-05-14T01:10:04.544Z,48.30
2023-05-14T01:11:04.420Z,48.40
2023-05-14T01:12:04.496Z,48.43
2023-05-14T01:13:04.405Z,48.40
2023-05-14T01:14:04.464Z,48.40
2023-05-14T01:15:04.374Z,48.43
2023-05-14T01:16:04.494Z,48.40
2023-05-14T01:17:04.358Z,48.40
2023-05-14T01:18:04.472Z,48.40
2023-05-14T01:19:04.394Z,48.43
2023-05-14T01:20:04.403Z,48.40
2023-05-14T01:21:04.312Z,48.40
2023-05-14T01:22:04.386Z,48.40
2023-05-14T01:23:04.294Z,48.40
2023-05-14T01:24:04.374Z,48.43
2023-05-14T01:25:04.275Z,48.40
2023-05-14T01:26:04.339Z,48.40
2023-05-14T01:27:04.247Z,48.40
2023-05-14T01:28:04.314Z,48.43
2023-05-14T01:29:04.225Z,48.40
2023-05-14T01:30:04.301Z,48.40
2023-05-14T01:31:04.206Z,48.40
2023-05-14T01:32:04.315Z,48.43
2023-05-14T01:33:04.214Z,48.43
2023-05-14T01:34:04.244Z,48.43
2023-05-14T01:35:04.162Z,48.40
2023-05-14T01:36:04.224Z,48.43
2023-05-14T01:37:04.151Z,48.43
2023-05-14T01:38:04.214Z,48.52
2023-05-14T01:39:04.121Z,48.43
2023-05-14T01:40:04.197Z,48.43
2023-05-14T01:41:04.097Z,48.43
2023-05-14T01:42:04.163Z,48.43
2023-05-14T01:43:04.125Z,48.40
2023-05-14T01:44:04.142Z,48.52
2023-05-14T01:45:04.053Z,48.52
2023-05-14T01:46:04.185Z,48.52
2023-05-14T01:47:04.047Z,48.52
2023-05-14T01:48:04.176Z,48.43
2023-05-14T01:49:04.004Z,48.52
2023-05-14T01:50:04.078Z,48.52
2023-05-14T01:51:03.994Z,48.52
2023-05-14T01:52:04.052Z,48.52
2023-05-14T01:53:03.968Z,48.52
2023-05-14T01:54:04.034Z,48.52
2023-05-14T01:55:03.944Z,48.43
2023-05-14T01:56:04.032Z,48.52
2023-05-14T01:57:03.936Z,48.52
2023-05-14T01:58:04.996Z,48.52
2023-05-14T01:59:03.976Z,48.52
2023-05-14T02:00:03.910Z,48.52
2023-05-14T02:01:03.980Z,48.52
2023-05-14T02:02:03.873Z,48.52
2023-05-14T02:03:04.004Z,48.52
2023-05-14T02:04:03.968Z,48.52
2023-05-14T02:05:05.682Z,48.52
2023-05-14T02:06:03.839Z,48.52
2023-05-14T02:07:03.877Z,48.52
2023-05-14T02:08:03.835Z,48.52
2023-05-14T02:09:03.872Z,48.52
2023-05-14T02:10:03.812Z,48.52
2023-05-14T02:11:03.845Z,48.52
2023-05-14T02:12:03.783Z,48.52
2023-05-14T02:13:03.849Z,48.52
2023-05-14T02:14:03.767Z,48.52
2023-05-14T02:15:03.802Z,48.52
2023-05-14T02:16:03.813Z,48.52
2023-05-14T02:17:03.781Z,48.52
2023-05-14T02:18:03.804Z,48.52
2023-05-14T02:19:03.773Z,48.52
2023-05-14T02:20:03.692Z,48.52
2023-05-14T02:21:03.736Z,48.52
2023-05-14T02:22:03.693Z,48.52
2023-05-14T02:23:03.709Z,48.52
2023-05-14T02:24:03.645Z,48.52
2023-05-14T02:25:03.698Z,48.52
2023-05-14T02:26:03.624Z,48.63
2023-05-14T02:27:03.665Z,48.52
2023-05-14T02:28:03.596Z,48.52
2023-05-14T02:29:03.659Z,48.52
2023-05-14T02:30:03.588Z,48.52
2023-05-14T02:31:03.700Z,48.63
2023-05-14T02:32:03.628Z,48.63
2023-05-14T02:33:03.719Z,48.63
2023-05-14T02:34:03.547Z,48.52
2023-05-14T02:35:03.606Z,48.63
2023-05-14T02:36:03.517Z,48.52
2023-05-14T02:37:03.563Z,48.63
2023-05-14T02:38:03.514Z,48.52
2023-05-14T02:39:03.540Z,48.52
2023-05-14T02:40:03.486Z,48.63
2023-05-14T02:41:03.520Z,48.63
2023-05-14T02:42:03.453Z,48.63
2023-05-14T02:43:03.493Z,48.63
2023-05-14T02:44:03.439Z,48.63
2023-05-14T02:45:03.490Z,48.63
2023-05-14T02:46:03.414Z,48.63
2023-05-14T02:47:03.543Z,48.63
2023-05-14T02:48:03.434Z,48.63
2023-05-14T02:49:03.429Z,48.63
2023-05-14T02:50:03.370Z,48.63
2023-05-14T02:51:03.433Z,48.63
2023-05-14T02:52:03.349Z,48.63
2023-05-14T02:53:03.817Z,48.63
2023-05-14T02:54:03.321Z,48.63
2023-05-14T02:55:03.371Z,48.63
2023-05-14T02:56:03.330Z,48.63
2023-05-14T02:57:03.358Z,48.63
2023-05-14T02:58:03.283Z,48.63
2023-05-14T02:59:03.341Z,48.63
2023-05-14T03:00:03.263Z,48.63
2023-05-14T03:01:03.327Z,48.63
2023-05-14T03:02:03.321Z,48.63
2023-05-14T03:03:03.302Z,48.63
2023-05-14T03:04:03.222Z,48.63
2023-05-14T03:05:03.299Z,48.63
2023-05-14T03:06:03.203Z,48.63
2023-05-14T03:07:03.269Z,48.63
2023-05-14T03:08:03.188Z,48.63
2023-05-14T03:09:03.167Z,48.63
2023-05-14T03:10:03.227Z,48.63
2023-05-14T03:11:03.090Z,48.63
2023-05-14T03:12:03.145Z,48.73
2023-05-14T03:13:03.059Z,48.63
2023-05-14T03:14:03.128Z,48.63
2023-05-14T03:15:03.161Z,48.63
2023-05-14T03:16:03.094Z,48.63
2023-05-14T03:17:03.150Z,48.63
2023-05-14T03:18:03.093Z,48.63
2023-05-14T03:19:03.110Z,48.73
2023-05-14T03:20:03.123Z,48.63
2023-05-14T03:21:02.995Z,48.73
2023-05-14T03:22:03.046Z,48.73
2023-05-14T03:23:02.960Z,48.63
2023-05-14T03:24:03.028Z,48.73
2023-05-14T03:25:02.932Z,48.63
2023-05-14T03:26:03.042Z,48.63
2023-05-14T03:27:02.900Z,48.73
2023-05-14T03:28:02.976Z,48.63
2023-05-14T03:29:02.894Z,48.63
2023-05-14T03:30:02.955Z,48.73
2023-05-14T03:31:02.918Z,48.63
2023-05-14T03:32:02.930Z,48.73
2023-05-14T03:33:02.872Z,48.73
2023-05-14T03:34:02.924Z,48.73
2023-05-14T03:35:02.828Z,48.73
2023-05-14T03:36:02.889Z,48.73
2023-05-14T03:37:02.807Z,48.73
2023-05-14T03:38:02.864Z,48.73
2023-05-14T03:39:02.777Z,48.73
2023-05-14T03:40:02.845Z,48.73
2023-05-14T03:41:02.759Z,48.73
2023-05-14T03:42:02.820Z,48.73
2023-05-14T03:43:02.741Z,48.73
2023-05-14T03:44:02.798Z,48.73
2023-05-14T03:45:02.721Z,48.73
2023-05-14T03:46:02.793Z,48.73
2023-05-14T03:47:02.697Z,48.73
2023-05-14T03:48:02.862Z,48.73
2023-05-14T03:49:02.762Z,48.73
2023-05-14T03:50:02.749Z,48.73
2023-05-14T03:51:02.654Z,48.73
2023-05-14T03:52:02.749Z,48.73
2023-05-14T03:53:02.625Z,48.73
2023-05-14T03:54:02.706Z,48.63
2023-05-14T03:55:02.616Z,48.73
2023-05-14T03:56:02.672Z,48.73
2023-05-14T03:57:02.590Z,48.73
2023-05-14T03:58:02.662Z,48.63
2023-05-14T03:59:02.573Z,48.63
2023-05-14T04:00:02.642Z,48.73
2023-05-14T04:01:02.548Z,48.63
2023-05-14T04:02:02.619Z,48.63
2023-05-14T04:03:02.642Z,48.63
2023-05-14T04:04:02.678Z,48.63
2023-05-14T04:05:02.506Z,48.63
2023-05-14T04:06:02.580Z,48.63
2023-05-14T04:07:02.514Z,48.63
2023-05-14T04:08:02.553Z,48.63
2023-05-14T04:09:02.495Z,48.63
2023-05-14T04:10:04.359Z,48.63
2023-05-14T04:11:02.448Z,48.63
2023-05-14T04:12:02.523Z,48.63
2023-05-14T04:13:02.419Z,48.63
2023-05-14T04:14:02.482Z,48.63
2023-05-14T04:15:02.401Z,48.63
2023-05-14T04:16:02.555Z,48.63
2023-05-14T04:17:02.388Z,48.63
2023-05-14T04:18:02.515Z,48.63
2023-05-14T04:19:02.430Z,48.52
2023-05-14T04:20:02.436Z,48.52
2023-05-14T04:21:02.336Z,48.52
2023-05-14T04:22:02.418Z,48.52
2023-05-14T04:23:02.317Z,48.52
2023-05-14T04:24:02.387Z,48.52
2023-05-14T04:25:02.292Z,48.43
2023-05-14T04:26:02.364Z,48.52
2023-05-14T04:27:02.275Z,48.52
2023-05-14T04:28:02.350Z,48.52
2023-05-14T04:29:02.250Z,48.52
2023-05-14T04:30:02.316Z,48.52
2023-05-14T04:31:02.226Z,48.52
2023-05-14T04:32:02.339Z,48.43
2023-05-14T04:33:02.241Z,48.43
2023-05-14T04:34:02.275Z,48.43
2023-05-14T04:35:02.187Z,48.40
2023-05-14T04:36:02.264Z,48.43
2023-05-14T04:37:02.164Z,48.40
2023-05-14T04:38:02.227Z,48.43
2023-05-14T04:39:02.144Z,48.40
2023-05-14T04:40:02.231Z,48.30
2023-05-14T04:41:02.133Z,48.30
2023-05-14T04:42:02.194Z,48.30
2023-05-14T04:43:02.104Z,48.30
2023-05-14T04:44:02.160Z,48.21
2023-05-14T04:45:02.078Z,48.21
2023-05-14T04:46:02.241Z,48.21
2023-05-14T04:47:02.056Z,48.10
2023-05-14T04:48:02.139Z,48.08
2023-05-14T04:49:02.050Z,47.98
2023-05-14T04:50:02.127Z,47.88
2023-05-14T04:51:02.049Z,47.88
2023-05-14T04:52:02.081Z,47.79
2023-05-14T04:53:01.989Z,47.68
2023-05-14T04:54:02.118Z,47.68
2023-05-14T04:55:02.012Z,47.56
2023-05-14T04:56:02.045Z,47.46
2023-05-14T04:57:01.949Z,47.36
2023-05-14T04:58:02.021Z,47.26
2023-05-14T04:59:01.938Z,47.16
2023-05-14T05:00:02.017Z,47.07
2023-05-14T05:01:01.930Z,47.07
2023-05-14T05:02:01.982Z,46.94
2023-05-14T05:03:01.966Z,46.94
2023-05-14T05:04:02.177Z,46.84
2023-05-14T05:05:01.870Z,46.64
2023-05-14T05:06:01.940Z,46.54
2023-05-14T05:07:01.868Z,46.32
2023-05-14T05:08:01.901Z,46.00
2023-05-14T05:09:02.250Z,45.70
2023-05-14T05:10:01.902Z,45.61
2023-05-14T05:11:01.819Z,45.50
2023-05-14T05:12:01.866Z,45.41
2023-05-14T05:13:01.797Z,45.19
2023-05-14T05:14:01.852Z,44.76
2023-05-14T05:15:01.785Z,44.35
2023-05-14T05:16:01.859Z,44.03
2023-05-14T05:17:01.764Z,43.71
2023-05-14T05:18:01.918Z,43.31
2023-05-14T05:19:01.753Z,42.99
2023-05-14T05:20:01.776Z,42.80
2023-05-14T05:21:01.714Z,42.38
2023-05-14T05:22:01.769Z,42.18
2023-05-14T05:23:01.703Z,41.96
2023-05-14T05:24:01.727Z,41.67
2023-05-14T05:25:01.667Z,41.35
2023-05-14T05:26:01.715Z,41.25
2023-05-14T05:27:01.658Z,41.05
2023-05-14T05:28:01.706Z,41.05
2023-05-14T05:29:01.634Z,41.05
2023-05-14T05:30:01.704Z,41.05
2023-05-14T05:31:01.614Z,40.86
2023-05-14T05:32:01.656Z,40.64
2023-05-14T05:33:01.603Z,40.54
2023-05-14T05:34:01.628Z,40.32
2023-05-14T05:35:01.564Z,39.92
2023-05-14T05:36:01.605Z,39.71
2023-05-14T05:37:01.551Z,39.61
2023-05-14T05:38:01.961Z,39.41
2023-05-14T05:39:01.517Z,39.30
2023-05-14T05:40:01.689Z,39.20
2023-05-14T05:41:01.500Z,39.20
2023-05-14T05:42:01.538Z,39.31
2023-05-14T05:43:01.479Z,39.41
2023-05-14T05:44:01.518Z,39.61
2023-05-14T05:45:01.455Z,39.83
2023-05-14T05:46:01.539Z,40.03
2023-05-14T05:47:01.501Z,40.22
2023-05-14T05:48:01.579Z,40.44
2023-05-14T05:49:01.412Z,40.44
2023-05-14T05:50:01.447Z,40.54
2023-05-14T05:51:01.388Z,40.74
2023-05-14T05:52:01.429Z,40.83
2023-05-14T05:53:01.376Z,40.96
2023-05-14T05:54:01.422Z,40.97
2023-05-14T05:55:01.386Z,41.27
2023-05-14T05:56:01.406Z,41.37
2023-05-14T05:57:01.326Z,41.57
2023-05-14T05:58:01.377Z,41.69
2023-05-14T05:59:01.325Z,41.79
2023-05-14T06:00:01.365Z,41.79
2023-05-14T06:01:01.319Z,41.88
2023-05-14T06:02:01.464Z,41.88
2023-05-14T06:03:01.345Z,41.88
2023-05-14T06:04:01.316Z,41.88
2023-05-14T06:05:01.326Z,41.99
2023-05-14T06:06:01.298Z,41.88
2023-05-14T06:07:01.220Z,41.99
2023-05-14T06:08:01.555Z,41.87
2023-05-14T06:09:01.199Z,41.67
2023-05-14T06:10:01.252Z,41.47
2023-05-14T06:11:01.178Z,41.37
2023-05-14T06:12:01.277Z,41.45
2023-05-14T06:13:01.208Z,41.45
2023-05-14T06:14:01.216Z,41.47
2023-05-14T06:15:01.140Z,41.57
2023-05-14T06:16:01.326Z,41.57
2023-05-14T06:17:01.208Z,41.47
2023-05-14T06:18:01.204Z,41.35
2023-05-14T06:19:01.159Z,41.25
2023-05-14T06:20:01.225Z,41.05
2023-05-14T06:21:01.178Z,41.15
2023-05-14T06:22:01.165Z,41.15
2023-05-14T06:23:01.075Z,41.15
2023-05-14T06:24:01.181Z,41.15
2023-05-14T06:25:01.045Z,41.15
2023-05-14T06:26:01.102Z,41.05
2023-05-14T06:27:01.010Z,40.96
2023-05-14T06:28:01.060Z,40.96
2023-05-14T06:29:01.000Z,41.15
2023-05-14T06:30:01.054Z,41.15
2023-05-14T06:31:00.970Z,41.15
2023-05-14T06:32:01.066Z,41.37
2023-05-14T06:33:00.959Z,41.49
2023-05-14T06:34:01.004Z,41.57
2023-05-14T06:35:00.921Z,41.57
2023-05-14T06:36:01.031Z,41.45
2023-05-14T06:37:00.907Z,41.35
2023-05-14T06:38:00.941Z,41.15
2023-05-14T06:39:00.891Z,41.05
2023-05-14T06:40:01.940Z,41.05
2023-05-14T06:41:00.941Z,41.05
2023-05-14T06:42:00.837Z,41.15
2023-05-14T06:43:00.902Z,41.27
2023-05-14T06:44:00.815Z,41.37
2023-05-14T06:45:00.887Z,41.37
2023-05-14T06:46:00.823Z,41.47
2023-05-14T06:47:00.862Z,41.59
2023-05-14T06:48:00.830Z,41.47
2023-05-14T06:49:00.915Z,41.15
2023-05-14T06:50:00.759Z,40.42
2023-05-14T06:51:00.830Z,39.81
2023-05-14T06:52:00.735Z,39.39
2023-05-14T06:53:00.812Z,39.18
2023-05-14T06:54:00.708Z,39.18
2023-05-14T06:55:00.778Z,39.08
2023-05-14T06:56:00.697Z,38.98
2023-05-14T06:57:01.760Z,38.88
2023-05-14T06:58:00.756Z,39.00
2023-05-14T06:59:00.668Z,39.22
2023-05-14T07:00:02.786Z,39.30
2023-05-14T07:01:00.708Z,39.52
2023-05-14T07:02:00.736Z,39.73
2023-05-14T07:03:00.692Z,39.83
2023-05-14T07:04:00.716Z,40.03
2023-05-14T07:05:00.615Z,40.03
2023-05-14T07:06:00.658Z,40.03
2023-05-14T07:07:00.604Z,39.81
2023-05-14T07:08:00.650Z,39.71
2023-05-14T07:09:00.573Z,39.83
2023-05-14T07:10:00.608Z,39.71
2023-05-14T07:11:00.549Z,39.81
2023-05-14T07:12:00.593Z,39.30
2023-05-14T07:13:00.568Z,38.88
2023-05-14T07:14:00.577Z,38.47
2023-05-14T07:15:00.521Z,38.06
2023-05-14T07:16:00.613Z,37.96
2023-05-14T07:17:00.521Z,37.54
2023-05-14T07:18:00.555Z,37.35
2023-05-14T07:19:00.535Z,37.46
2023-05-14T07:20:00.533Z,37.15
2023-05-14T07:21:00.499Z,36.93
2023-05-14T07:22:00.502Z,37.15
2023-05-14T07:23:00.420Z,37.68
2023-05-14T07:24:00.576Z,38.19
2023-05-14T07:25:00.424Z,38.40
2023-05-14T07:26:00.442Z,38.80
2023-05-14T07:27:00.388Z,38.61
2023-05-14T07:28:00.413Z,38.70
2023-05-14T07:29:00.360Z,39.12
2023-05-14T07:30:00.416Z,39.43
2023-05-14T07:31:00.356Z,39.84
2023-05-14T07:32:00.401Z,40.05
2023-05-14T07:33:00.351Z,40.34
2023-05-14T07:34:00.364Z,40.46
2023-05-14T07:35:00.303Z,40.75
2023-05-14T07:36:00.335Z,40.88
2023-05-14T07:37:00.273Z,40.97
2023-05-14T07:38:00.316Z,41.18
2023-05-14T07:39:00.254Z,41.39
2023-05-14T07:40:00.292Z,41.49
2023-05-14T07:41:00.227Z,41.59
2023-05-14T07:42:00.282Z,41.69
2023-05-14T07:43:00.218Z,41.80
2023-05-14T07:44:00.272Z,41.91
2023-05-14T07:45:00.190Z,42.01
2023-05-14T07:46:00.256Z,42.10
2023-05-14T07:47:00.235Z,42.20
2023-05-14T07:48:00.403Z,42.30
2023-05-14T07:49:00.154Z,42.42
2023-05-14T07:50:00.190Z,42.52
2023-05-14T07:51:00.199Z,42.62
2023-05-14T07:52:00.174Z,42.62
2023-05-14T07:53:00.115Z,42.72
2023-05-14T07:54:00.149Z,42.72
2023-05-14T07:55:00.095Z,42.82
2023-05-14T07:56:00.182Z,42.94
2023-05-14T07:57:00.061Z,42.94
2023-05-14T07:58:00.164Z,43.04
2023-05-14T07:59:00.037Z,43.04
2023-05-14T08:00:00.136Z,43.13
2023-05-14T08:01:00.015Z,43.13
2023-05-14T08:02:00.177Z,43.13
2023-05-14T08:03:00.293Z,43.24
2023-05-14T08:04:00.217Z,43.34
2023-05-14T08:04:59.983Z,43.34
2023-05-14T08:06:00.027Z,43.34
2023-05-14T08:06:59.951Z,43.45
2023-05-14T08:08:00.004Z,43.45
2023-05-14T08:08:59.934Z,43.45
2023-05-14T08:09:59.982Z,43.56
2023-05-14T08:10:59.957Z,43.56
2023-05-14T08:11:59.952Z,43.56
2023-05-14T08:12:59.890Z,43.65
2023-05-14T08:13:59.955Z,43.65
2023-05-14T08:14:59.870Z,43.75
2023-05-14T08:15:59.920Z,43.75
2023-05-14T08:16:59.904Z,43.75
2023-05-14T08:17:59.926Z,43.75
2023-05-14T08:18:59.904Z,43.85
2023-05-14T08:19:59.873Z,43.85
2023-05-14T08:20:59.811Z,43.85
2023-05-14T08:21:59.852Z,43.95
2023-05-14T08:22:59.788Z,43.95
2023-05-14T08:23:59.837Z,43.95
2023-05-14T08:24:59.767Z,44.07
2023-05-14T08:25:59.850Z,44.07
2023-05-14T08:26:59.748Z,44.07
2023-05-14T08:27:59.801Z,44.07
2023-05-14T08:28:59.727Z,44.17
2023-05-14T08:29:59.766Z,44.17
2023-05-14T08:30:59.762Z,44.17
2023-05-14T08:32:03.824Z,44.27
2023-05-14T08:32:59.708Z,44.27
2023-05-14T08:33:59.735Z,44.27
2023-05-14T08:34:59.680Z,44.27
2023-05-14T08:35:59.714Z,44.37
2023-05-14T08:36:59.643Z,44.37
2023-05-14T08:37:59.693Z,44.37
2023-05-14T08:38:59.622Z,44.37
2023-05-14T08:39:59.657Z,44.47
2023-05-14T08:40:59.617Z,44.47
2023-05-14T08:41:59.650Z,44.47
2023-05-14T08:42:59.585Z,44.47
2023-05-14T08:43:59.680Z,44.57
2023-05-14T08:44:59.594Z,44.57
2023-05-14T08:45:59.616Z,44.57
2023-05-14T08:46:59.543Z,44.57
2023-05-14T08:47:59.700Z,44.57
2023-05-14T08:48:59.539Z,44.57
2023-05-14T08:49:59.563Z,44.59
2023-05-14T08:50:59.502Z,44.67
2023-05-14T08:51:59.545Z,44.69
2023-05-14T08:52:59.483Z,44.69
2023-05-14T08:53:59.510Z,44.69
2023-05-14T08:54:59.445Z,44.69
2023-05-14T08:55:59.493Z,44.69
2023-05-14T08:56:59.422Z,44.79
2023-05-14T08:57:59.496Z,44.79
2023-05-14T08:58:59.395Z,44.79
2023-05-14T08:59:59.456Z,44.79
2023-05-14T09:00:59.389Z,44.79
2023-05-14T09:01:59.461Z,44.79
2023-05-14T09:02:59.366Z,44.79
2023-05-14T09:03:59.432Z,44.79
2023-05-14T09:04:59.352Z,44.89
2023-05-14T09:06:00.252Z,44.89
2023-05-14T09:06:59.331Z,44.89
2023-05-14T09:07:59.388Z,44.89
2023-05-14T09:08:59.303Z,44.89
2023-05-14T09:09:59.345Z,44.89
2023-05-14T09:10:59.283Z,44.89
2023-05-14T09:11:59.314Z,44.89
2023-05-14T09:12:59.290Z,44.89
2023-05-14T09:13:59.296Z,44.89
2023-05-14T09:14:59.231Z,44.89
2023-05-14T09:15:59.376Z,44.89
2023-05-14T09:16:59.207Z,44.89
2023-05-14T09:17:59.288Z,44.98
2023-05-14T09:18:59.271Z,44.98
2023-05-14T09:19:59.237Z,44.98
2023-05-14T09:20:59.179Z,44.98
2023-05-14T09:21:59.288Z,44.98
2023-05-14T09:22:59.134Z,44.98
2023-05-14T09:23:59.208Z,44.98
2023-05-14T09:24:59.114Z,44.98
2023-05-14T09:25:59.186Z,44.98
2023-05-14T09:26:59.107Z,44.98
2023-05-14T09:27:59.200Z,44.98
2023-05-14T09:28:59.075Z,45.09
2023-05-14T09:29:59.145Z,44.98
2023-05-14T09:30:59.048Z,45.09
2023-05-14T09:31:59.290Z,45.09
2023-05-14T09:32:59.161Z,45.09
2023-05-14T09:33:59.095Z,45.09
2023-05-14T09:34:59.008Z,45.09
2023-05-14T09:35:59.077Z,45.09
2023-05-14T09:36:59.012Z,45.09
2023-05-14T09:37:59.052Z,45.09
2023-05-14T09:38:58.970Z,45.09
2023-05-14T09:39:59.036Z,45.09
2023-05-14T09:40:58.942Z,45.09
2023-05-14T09:41:59.044Z,45.09
2023-05-14T09:42:58.935Z,45.09
2023-05-14T09:43:58.985Z,45.09
2023-05-14T09:44:58.899Z,45.19
2023-05-14T09:45:58.975Z,45.19
2023-05-14T09:46:59.003Z,45.19
2023-05-14T09:47:59.116Z,45.19
2023-05-14T09:48:58.860Z,45.19
2023-05-14T09:49:58.922Z,45.19
2023-05-14T09:50:58.834Z,45.19
2023-05-14T09:51:58.916Z,45.19
2023-05-14T09:52:58.820Z,45.19
2023-05-14T09:53:58.893Z,45.28
2023-05-14T09:54:58.799Z,45.28
2023-05-14T09:55:58.889Z,45.28
2023-05-14T09:56:58.771Z,45.31
2023-05-14T09:57:58.842Z,45.28
2023-05-14T09:58:58.751Z,45.28
2023-05-14T09:59:58.823Z,45.28
2023-05-14T10:00:58.802Z,45.28
2023-05-14T10:01:58.802Z,45.31
2023-05-14T10:02:58.752Z,45.28
2023-05-14T10:03:58.810Z,45.28
2023-05-14T10:04:58.689Z,45.31
2023-05-14T10:05:58.770Z,45.28
2023-05-14T10:06:58.672Z,45.31
2023-05-14T10:07:58.737Z,45.31
2023-05-14T10:08:58.646Z,45.28
2023-05-14T10:09:59.719Z,45.31
2023-05-14T10:10:58.618Z,45.41
2023-05-14T10:11:58.686Z,45.31
2023-05-14T10:12:58.604Z,45.28
2023-05-14T10:13:58.685Z,45.41
2023-05-14T10:14:58.578Z,45.41
2023-05-14T10:15:58.653Z,45.41
2023-05-14T10:16:58.599Z,45.41
2023-05-14T10:17:58.689Z,45.41
2023-05-14T10:18:58.551Z,45.41
2023-05-14T10:19:58.615Z,45.41
2023-05-14T10:20:58.516Z,45.41
2023-05-14T10:21:58.620Z,45.41
2023-05-14T10:22:58.498Z,45.41
2023-05-14T10:23:58.563Z,45.41
2023-05-14T10:24:58.479Z,45.41
2023-05-14T10:25:58.551Z,45.41
2023-05-14T10:26:58.452Z,45.41
2023-05-14T10:27:58.530Z,45.41
2023-05-14T10:28:58.435Z,45.41
2023-05-14T10:29:58.509Z,45.41
2023-05-14T10:30:58.497Z,45.41
2023-05-14T10:31:58.478Z,45.41
2023-05-14T10:32:58.401Z,45.41
2023-05-14T10:33:59.879Z,45.41
2023-05-14T10:34:58.368Z,45.41
2023-05-14T10:35:58.441Z,45.41
2023-05-14T10:36:58.344Z,45.50
2023-05-14T10:37:58.420Z,45.50
2023-05-14T10:38:58.325Z,45.50
2023-05-14T10:39:58.401Z,45.41
2023-05-14T10:40:58.310Z,45.50
2023-05-14T10:41:58.377Z,45.50
2023-05-14T10:42:58.289Z,45.50
2023-05-14T10:43:58.355Z,45.50
2023-05-14T10:44:58.299Z,45.50
2023-05-14T10:45:58.342Z,45.50
2023-05-14T10:46:58.329Z,45.50
2023-05-14T10:47:58.408Z,45.50
2023-05-14T10:48:58.222Z,45.50
2023-05-14T10:49:58.288Z,45.50
2023-05-14T10:50:58.243Z,45.50
2023-05-14T10:51:58.270Z,45.50
2023-05-14T10:52:58.181Z,45.50
2023-05-14T10:53:58.243Z,45.50
2023-05-14T10:54:59.179Z,45.50
2023-05-14T10:55:58.219Z,45.50
2023-05-14T10:56:58.139Z,45.50
2023-05-14T10:57:58.209Z,45.50
2023-05-14T10:58:58.133Z,45.50
2023-05-14T10:59:58.184Z,45.50
2023-05-14T11:00:58.093Z,45.50
2023-05-14T11:01:58.169Z,45.50
2023-05-14T11:02:58.091Z,45.50
2023-05-14T11:03:58.173Z,45.50
2023-05-14T11:04:58.059Z,45.50
2023-05-14T11:05:58.114Z,45.61
2023-05-14T11:06:58.031Z,45.50
2023-05-14T11:07:58.100Z,45.50
2023-05-14T11:08:58.008Z,45.50
2023-05-14T11:09:58.081Z,45.50
2023-05-14T11:10:57.990Z,45.50
2023-05-14T11:11:58.054Z,45.50
2023-05-14T11:12:57.977Z,45.61
2023-05-14T11:13:58.037Z,45.61
2023-05-14T11:14:57.950Z,45.61
2023-05-14T11:15:59.631Z,45.61
2023-05-14T11:16:57.987Z,45.61
2023-05-14T11:17:58.073Z,45.61
2023-05-14T11:18:57.958Z,45.61
2023-05-14T11:19:58.001Z,45.61
2023-05-14T11:20:57.878Z,45.61
2023-05-14T11:21:57.970Z,45.61
2023-05-14T11:22:57.864Z,45.61
2023-05-14T11:23:57.933Z,45.61
2023-05-14T11:24:57.950Z,45.61
2023-05-14T11:25:57.940Z,45.61
2023-05-14T11:26:57.826Z,45.61
2023-05-14T11:27:57.882Z,45.61
2023-05-14T11:28:57.794Z,45.61
2023-05-14T11:29:57.863Z,45.61
2023-05-14T11:30:57.779Z,45.70
2023-05-14T11:31:57.882Z,45.70
2023-05-14T11:32:59.313Z,45.61
2023-05-14T11:33:57.830Z,45.70
2023-05-14T11:34:57.733Z,45.70
2023-05-14T11:35:57.803Z,45.61
2023-05-14T11:36:57.716Z,45.70
2023-05-14T11:37:57.777Z,45.61
2023-05-14T11:38:57.695Z,45.70
2023-05-14T11:39:57.772Z,45.70
2023-05-14T11:40:57.680Z,45.70
2023-05-14T11:41:57.753Z,45.70
2023-05-14T11:42:57.650Z,45.70
2023-05-14T11:43:57.826Z,45.70
2023-05-14T11:44:57.644Z,45.70
2023-05-14T11:45:57.800Z,45.70
2023-05-14T11:46:57.619Z,45.70
2023-05-14T11:47:57.732Z,45.70
2023-05-14T11:48:57.582Z,45.70
2023-05-14T11:49:57.662Z,45.70
2023-05-14T11:50:57.568Z,45.70
2023-05-14T11:51:57.662Z,45.70
2023-05-14T11:52:57.572Z,45.70
2023-05-14T11:53:57.618Z,45.70
2023-05-14T11:54:57.519Z,45.70
2023-05-14T11:55:57.603Z,45.70
2023-05-14T11:56:57.510Z,45.70
2023-05-14T11:57:57.572Z,45.70
2023-05-14T11:58:57.479Z,45.70
2023-05-14T11:59:57.551Z,45.70
2023-05-14T12:00:57.450Z,45.70
2023-05-14T12:01:57.524Z,45.70
2023-05-14T12:02:57.464Z,45.70
2023-05-14T12:03:57.731Z,45.80
2023-05-14T12:04:57.441Z,45.80
2023-05-14T12:05:57.512Z,45.70
2023-05-14T12:06:57.389Z,45.80
2023-05-14T12:07:57.465Z,45.80
2023-05-14T12:08:57.368Z,45.80
2023-05-14T12:09:57.443Z,45.80
2023-05-14T12:10:57.350Z,45.80
2023-05-14T12:11:57.429Z,45.80
2023-05-14T12:12:57.360Z,45.80
2023-05-14T12:13:57.398Z,45.80
2023-05-14T12:14:57.300Z,45.80
2023-05-14T12:15:57.434Z,45.80
2023-05-14T12:16:57.282Z,45.80
2023-05-14T12:17:57.373Z,45.80
2023-05-14T12:18:57.279Z,45.80
2023-05-14T12:19:57.344Z,45.80
2023-05-14T12:20:57.244Z,45.80
2023-05-14T12:21:57.319Z,45.80
2023-05-14T12:22:57.216Z,45.80
2023-05-14T12:23:57.296Z,45.80
2023-05-14T12:24:57.199Z,45.80
2023-05-14T12:25:57.273Z,45.80
2023-05-14T12:26:57.172Z,45.80
2023-05-14T12:27:57.263Z,45.80
2023-05-14T12:28:57.157Z,45.80
2023-05-14T12:29:58.715Z,45.80
2023-05-14T12:30:57.323Z,45.80
2023-05-14T12:31:57.360Z,45.80
2023-05-14T12:32:57.157Z,45.80
2023-05-14T12:33:57.180Z,45.80
2023-05-14T12:34:57.092Z,45.80
2023-05-14T12:35:58.874Z,45.80
2023-05-14T12:36:57.073Z,45.80
2023-05-14T12:37:57.148Z,45.80
2023-05-14T12:38:57.052Z,45.80
2023-05-14T12:39:57.124Z,45.80
2023-05-14T12:40:57.026Z,45.80
2023-05-14T12:41:57.090Z,45.80
2023-05-14T12:42:57.083Z,45.80
2023-05-14T12:43:57.081Z,45.80
2023-05-14T12:44:56.996Z,45.90
2023-05-14T12:45:57.053Z,45.80
2023-05-14T12:46:56.994Z,45.80
2023-05-14T12:47:57.092Z,45.80
2023-05-14T12:48:56.944Z,45.80
2023-05-14T12:49:57.126Z,45.80
2023-05-14T12:50:56.925Z,45.80
2023-05-14T12:52:13.175Z,45.80